Time;durP1;ratioP1;P1;durP2;ratioP2;P2;SDS_P1;SDS_P2;PMS_P1;PMS_P2;Temp;Humidity;BMP_temperature;BMP_pressure;BME280_temperature;BME280_humidity;BME280_pressure;Samples;Min_cycle;Max_cycle;Signal;HPM_P1;HPM_P2
2022/11/28 00:02:06;;;;;;;6.10;5.50;;;;;;;10.73;48.58;98604.53;6984440;28;20242;-83
2022/11/28 00:05:27;;;;;;;6.17;5.57;;;;;;;10.73;48.38;98564.09;6977132;28;20314;-84
2022/11/28 00:08:49;;;;;;;6.13;5.53;;;;;;;11.21;47.37;98611.25;6978463;28;20277;-83
2022/11/28 00:12:12;;;;;;;6.17;5.27;;;;;;;11.23;47.25;98578.66;6978763;28;20239;-83
2022/11/28 00:15:36;;;;;;;6.57;5.63;;;;;;;11.25;47.18;98603.53;6983254;28;20245;-84
2022/11/28 00:18:59;;;;;;;6.27;5.43;;;;;;;10.76;48.50;98612.22;6983607;28;20245;-83
2022/11/28 00:22:21;;;;;;;5.50;5.00;;;;;;;11.14;48.16;98605.03;6984236;28;20296;-85
2022/11/28 00:25:42;;;;;;;6.60;5.93;;;;;;;10.89;48.50;98612.19;6981091;28;20234;-84
2022/11/28 00:29:06;;;;;;;7.10;5.83;;;;;;;10.76;49.18;98627.56;6981592;28;20237;-85
2022/11/28 00:32:28;;;;;;;5.73;5.23;;;;;;;11.00;48.19;98591.81;6982374;28;20291;-86
2022/11/28 00:35:49;;;;;;;5.63;5.13;;;;;;;10.48;49.15;98543.41;6981320;28;20286;-84
2022/11/28 00:39:11;;;;;;;5.87;5.37;;;;;;;10.16;49.98;98560.47;6981623;28;20316;-85
2022/11/28 00:42:33;;;;;;;7.40;5.17;;;;;;;10.85;48.65;98581.28;6981820;28;20233;-85
2022/11/28 00:45:56;;;;;;;6.53;5.47;;;;;;;11.05;48.42;98592.81;6981148;28;20344;-84
2022/11/28 00:49:17;;;;;;;6.10;5.50;;;;;;;10.90;49.12;98627.31;6981202;28;20258;-85
2022/11/28 00:52:39;;;;;;;6.17;5.57;;;;;;;10.05;50.58;98553.81;6999119;28;20659;-86
2022/11/28 00:56:01;;;;;;;7.50;5.70;;;;;;;10.48;50.17;98589.25;7007720;28;20781;-85
2022/11/28 00:59:22;;;;;;;7.30;5.90;;;;;;;11.13;48.94;98602.56;7008222;28;20289;-84
2022/11/28 01:02:45;;;;;;;6.47;5.57;;;;;;;11.09;49.17;98599.44;6989770;28;20257;-85
2022/11/28 01:06:07;;;;;;;6.67;5.37;;;;;;;11.08;49.65;98611.28;6980953;28;20233;-85
2022/11/28 01:09:31;;;;;;;6.43;5.67;;;;;;;10.71;50.55;98611.19;6981340;28;20552;-85
2022/11/28 01:12:52;;;;;;;6.90;6.00;;;;;;;10.67;50.69;98596.47;6981301;28;20243;-85
2022/11/28 01:16:17;;;;;;;5.63;5.13;;;;;;;10.53;51.39;98605.63;6980646;28;20251;-84
2022/11/28 01:19:41;;;;;;;6.03;5.53;;;;;;;10.45;51.46;98611.25;6978765;28;20325;-85
2022/11/28 01:23:03;;;;;;;6.17;5.30;;;;;;;10.86;50.18;98609.09;6980506;28;20672;-84
2022/11/28 01:26:29;;;;;;;5.83;5.27;;;;;;;10.86;50.07;98574.84;6978460;28;20237;-84
2022/11/28 01:29:51;;;;;;;6.13;5.53;;;;;;;10.88;50.62;98574.63;6980941;28;20285;-84
2022/11/28 01:33:12;;;;;;;6.07;5.47;;;;;;;10.88;50.47;98578.16;7001198;28;20237;-85
2022/11/28 01:36:35;;;;;;;6.20;5.60;;;;;;;10.57;52.07;98579.91;7006816;28;20800;-84
2022/11/28 01:39:56;;;;;;;6.27;5.67;;;;;;;10.69;50.79;98546.69;7008318;28;20602;-84
2022/11/28 01:43:18;;;;;;;8.73;5.93;;;;;;;10.98;50.61;98583.13;7008117;28;20309;-83
2022/11/28 01:46:40;;;;;;;6.20;5.37;;;;;;;10.67;51.11;98564.09;6997709;28;20782;-84
2022/11/28 01:50:03;;;;;;;6.60;5.90;;;;;;;10.64;51.28;98592.31;6980194;28;20287;-85
2022/11/28 01:53:28;;;;;;;6.13;5.53;;;;;;;10.73;51.22;98592.91;6979843;28;20252;-85
2022/11/28 01:56:55;;;;;;;6.07;5.50;;;;;;;10.14;51.06;98581.38;6978997;28;20375;-85
2022/11/28 02:00:19;;;;;;;7.20;5.03;;;;;;;10.76;50.39;98581.72;6979403;28;20236;-84
2022/11/28 02:03:42;;;;;;;5.20;4.70;;;;;;;10.03;51.67;98566.69;7029397;28;20303;-84
2022/11/28 02:07:03;;;;;;;7.27;5.67;;;;;;;10.73;50.26;98569.50;7033999;28;20258;-84
2022/11/28 02:10:32;;;;;;;5.33;4.83;;;;;;;10.88;50.20;98572.78;7034668;28;20275;-84
2022/11/28 02:13:59;;;;;;;5.80;5.20;;;;;;;11.05;49.48;98573.94;7034100;28;20225;-84
2022/11/28 02:17:33;;;;;;;5.83;5.30;;;;;;;10.96;50.28;98574.38;7032481;28;20253;-85
2022/11/28 02:21:17;;;;;;;6.07;5.10;;;;;;;10.68;50.61;98558.50;7034412;28;20194;-84
2022/11/28 02:25:15;;;;;;;5.50;5.00;;;;;;;10.66;50.69;98560.59;7034092;28;20236;-85
2022/11/28 02:29:10;;;;;;;6.00;5.40;;;;;;;10.77;51.41;98556.41;7008516;28;20234;-84
2022/11/28 02:32:49;;;;;;;5.40;4.90;;;;;;;10.58;51.83;98549.22;7034580;28;20220;-86
2022/11/28 02:36:13;;;;;;;5.10;4.70;;;;;;;10.67;51.98;98548.78;7033287;28;20201;-85
2022/11/28 02:39:41;;;;;;;5.33;4.77;;;;;;;10.62;51.92;98529.69;7033053;28;20247;-83
2022/11/28 02:43:09;;;;;;;5.60;4.97;;;;;;;10.69;51.81;98524.28;7031151;28;20697;-83
2022/11/28 02:46:35;;;;;;;5.40;4.83;;;;;;;10.74;51.41;98532.59;7029978;28;20618;-83
2022/11/28 02:50:05;;;;;;;5.40;4.87;;;;;;;10.72;50.90;98511.22;7030651;28;20285;-82
2022/11/28 02:53:29;;;;;;;5.10;4.60;;;;;;;10.65;50.95;98501.50;6987235;28;20209;-83
2022/11/28 02:56:52;;;;;;;4.93;4.43;;;;;;;10.44;51.09;98474.81;6975458;28;20309;-83
2022/11/28 03:00:29;;;;;;;5.50;4.87;;;;;;;10.30;52.15;98483.97;6977300;28;20241;-83
2022/11/28 03:04:02;;;;;;;5.30;4.80;;;;;;;9.75;53.25;98469.09;7027650;28;20219;-83
2022/11/28 03:07:36;;;;;;;5.60;4.80;;;;;;;9.88;53.05;98465.56;7029101;28;20289;-84
2022/11/28 03:11:03;;;;;;;6.07;4.93;;;;;;;10.40;51.58;98489.75;6982797;28;20676;-84
2022/11/28 03:14:35;;;;;;;5.70;4.67;;;;;;;10.32;51.96;98503.44;6977807;28;20208;-83
2022/11/28 03:18:02;;;;;;;6.43;4.70;;;;;;;10.15;52.00;98486.91;6976354;28;20293;-83
2022/11/28 03:21:26;;;;;;;6.53;4.73;;;;;;;10.37;51.06;98480.22;6977770;28;20272;-83
2022/11/28 03:24:51;;;;;;;6.73;5.37;;;;;;;10.02;51.80;98476.13;6977044;28;20253;-84
2022/11/28 03:28:19;;;;;;;5.73;5.13;;;;;;;10.04;51.81;98478.66;6977730;28;20258;-83
2022/11/28 03:31:42;;;;;;;5.50;5.00;;;;;;;10.11;51.13;98450.63;6983500;28;20240;-83
2022/11/28 03:35:07;;;;;;;5.30;4.80;;;;;;;10.12;51.67;98468.47;7004593;28;20685;-83
2022/11/28 03:38:33;;;;;;;5.20;4.70;;;;;;;9.74;52.53;98464.75;7004923;28;20368;-83
2022/11/28 03:41:58;;;;;;;5.47;4.90;;;;;;;9.42;54.14;98435.16;7004994;28;20563;-83
2022/11/28 03:45:22;;;;;;;6.77;5.33;;;;;;;9.75;52.22;98404.50;7004152;28;20977;-83
2022/11/28 03:48:46;;;;;;;5.50;5.00;;;;;;;10.52;50.61;98456.53;7008243;28;20283;-83
2022/11/28 03:52:13;;;;;;;5.87;5.27;;;;;;;9.88;51.93;98449.41;7009018;28;20202;-83
2022/11/28 03:55:42;;;;;;;6.17;5.20;;;;;;;10.02;51.53;98459.13;6991930;28;20208;-83
2022/11/28 03:59:11;;;;;;;7.10;5.07;;;;;;;10.27;51.86;98482.53;6985939;28;20296;-83
2022/11/28 04:02:36;;;;;;;7.17;5.67;;;;;;;10.60;50.84;98469.78;6979953;28;20261;-83
2022/11/28 04:06:00;;;;;;;5.60;5.07;;;;;;;10.34;51.62;98463.66;6979922;28;20231;-80
2022/11/28 04:09:30;;;;;;;5.83;5.23;;;;;;;10.42;50.82;98464.25;6987602;28;20225;-83
2022/11/28 04:12:57;;;;;;;6.67;5.50;;;;;;;10.33;50.96;98459.31;6982972;28;20240;-83
2022/11/28 04:16:22;;;;;;;6.07;5.47;;;;;;;10.04;51.24;98462.50;6981342;28;20930;-83
2022/11/28 04:19:52;;;;;;;5.93;5.33;;;;;;;9.40;51.88;98410.34;6983028;28;20304;-83
2022/11/28 04:23:17;;;;;;;6.80;5.60;;;;;;;10.01;51.19;98444.00;6985186;28;20244;-81
2022/11/28 04:26:42;;;;;;;8.93;6.37;;;;;;;10.16;50.06;98420.41;6985077;28;20333;-84
2022/11/28 04:30:05;;;;;;;6.03;5.43;;;;;;;10.40;49.73;98438.56;6986772;28;20217;-81
2022/11/28 04:33:31;;;;;;;12.07;7.47;;;;;;;10.60;49.76;98452.78;7026061;28;20197;-81
2022/11/28 04:36:54;;;;;;;7.60;6.13;;;;;;;10.64;50.25;98465.59;7040850;28;20225;-83
2022/11/28 04:40:16;;;;;;;9.43;7.63;;;;;;;10.62;50.94;98456.09;7038003;28;20286;-83
2022/11/28 04:43:40;;;;;;;6.87;6.17;;;;;;;10.19;52.07;98466.59;7036951;28;20286;-82
2022/11/28 04:47:01;;;;;;;6.07;5.47;;;;;;;10.04;52.54;98468.69;7035252;28;20573;-83
2022/11/28 04:50:29;;;;;;;7.10;6.50;;;;;;;9.56;53.73;98475.31;7038406;28;20986;-81
2022/11/28 04:53:56;;;;;;;7.00;5.37;;;;;;;9.27;53.22;98472.19;7040710;28;20195;-81
2022/11/28 04:57:22;;;;;;;6.70;5.70;;;;;;;9.85;52.36;98471.38;7041151;28;20270;-81
2022/11/28 05:00:44;;;;;;;5.87;5.27;;;;;;;9.95;51.16;98456.47;7042310;28;20226;-81
2022/11/28 05:04:07;;;;;;;6.70;5.17;;;;;;;9.90;50.02;98458.94;7040162;28;20705;-81
2022/11/28 05:07:30;;;;;;;5.57;5.03;;;;;;;10.32;49.56;98452.25;7038910;28;20856;-82
2022/11/28 05:10:51;;;;;;;6.13;5.53;;;;;;;10.62;49.24;98453.41;7040919;28;20229;-80
2022/11/28 05:14:13;;;;;;;6.63;5.30;;;;;;;10.69;49.13;98436.13;7056207;28;20192;-82
2022/11/28 05:17:35;;;;;;;6.13;5.30;;;;;;;10.42;50.01;98447.25;7024759;28;20684;-81
2022/11/28 05:21:00;;;;;;;5.87;4.97;;;;;;;10.35;50.23;98424.88;6981415;28;20271;-81
2022/11/28 05:24:23;;;;;;;6.27;5.67;;;;;;;10.36;50.29;98413.06;6980976;28;20210;-82
2022/11/28 05:27:44;;;;;;;5.83;5.17;;;;;;;10.43;49.79;98413.84;6980557;28;20242;-81
2022/11/28 05:31:06;;;;;;;6.17;5.30;;;;;;;10.44;49.57;98427.13;6981128;28;20237;-82
2022/11/28 05:34:29;;;;;;;6.57;5.03;;;;;;;10.21;49.24;98437.56;6982393;28;20300;-81
2022/11/28 05:37:50;;;;;;;5.53;5.03;;;;;;;10.36;49.23;98438.16;6980672;28;20226;-82
2022/11/28 05:41:20;;;;;;;6.20;5.60;;;;;;;10.24;49.01;98428.22;6998221;28;20213;-82
2022/11/28 05:44:41;;;;;;;5.83;5.23;;;;;;;10.63;48.74;98441.56;6998829;28;20203;-81
2022/11/28 05:48:03;;;;;;;6.03;5.43;;;;;;;9.98;49.08;98437.16;6987862;28;20302;-81
2022/11/28 05:51:26;;;;;;;6.63;5.23;;;;;;;10.36;48.94;98423.84;6998469;28;20246;-82
2022/11/28 05:54:47;;;;;;;6.80;5.60;;;;;;;10.43;48.40;98435.41;6997727;28;20208;-82
2022/11/28 05:58:10;;;;;;;6.37;5.73;;;;;;;10.34;48.37;98442.91;7002368;28;20308;-81
2022/11/28 06:01:32;;;;;;;5.80;5.20;;;;;;;10.67;47.28;98440.09;6989945;28;20237;-81
2022/11/28 06:04:53;;;;;;;6.17;5.60;;;;;;;10.72;47.26;98438.41;7036659;28;20234;-82
2022/11/28 06:08:15;;;;;;;5.57;4.93;;;;;;;10.85;47.15;98438.34;7038346;28;20277;-81
2022/11/28 06:11:37;;;;;;;7.43;5.60;;;;;;;10.96;46.80;98434.13;7026502;28;20211;-82
2022/11/28 06:15:00;;;;;;;6.67;5.97;;;;;;;11.11;46.70;98429.28;7008514;28;20208;-82
2022/11/28 06:18:21;;;;;;;7.63;6.17;;;;;;;10.83;46.63;98382.97;6989972;28;20232;-81
2022/11/28 06:21:43;;;;;;;8.93;6.20;;;;;;;11.22;46.33;98418.59;6977621;28;20287;-82
2022/11/28 06:25:05;;;;;;;6.50;5.70;;;;;;;11.18;46.43;98443.53;6976007;28;20284;-84
2022/11/28 06:28:26;;;;;;;7.13;6.10;;;;;;;11.24;46.26;98421.94;6975551;28;20778;-82
2022/11/28 06:31:49;;;;;;;9.33;7.13;;;;;;;11.18;46.83;98436.28;6976799;28;20207;-82
2022/11/28 06:35:11;;;;;;;11.50;8.37;;;;;;;10.32;49.18;98447.69;6979184;28;20230;-84
2022/11/28 06:38:33;;;;;;;8.17;6.80;;;;;;;9.64;50.99;98442.00;6976714;28;20229;-81
2022/11/28 06:41:54;;;;;;;8.17;6.27;;;;;;;10.14;49.92;98446.69;6979790;28;20623;-82
2022/11/28 06:45:16;;;;;;;8.97;5.90;;;;;;;10.67;48.38;98437.38;6978781;28;20237;-81
2022/11/28 06:48:39;;;;;;;8.17;5.70;;;;;;;10.92;47.79;98439.13;6999491;28;20263;-80
2022/11/28 06:52:01;;;;;;;8.93;5.87;;;;;;;11.04;47.61;98463.56;6988847;28;20203;-83
2022/11/28 06:55:23;;;;;;;8.63;6.60;;;;;;;11.14;47.33;98464.75;7001267;28;20276;-84
2022/11/28 06:58:48;;;;;;;5.77;5.17;;;;;;;11.17;46.73;98455.38;7004927;28;20449;-84
2022/11/28 07:02:16;;;;;;;6.50;5.40;;;;;;;11.11;47.42;98462.47;7005197;28;20365;-84
2022/11/28 07:05:39;;;;;;;6.30;5.70;;;;;;;11.09;47.49;98469.16;7004222;28;20225;-84
2022/11/28 07:09:01;;;;;;;6.23;5.63;;;;;;;11.10;47.59;98462.69;7005059;28;20291;-84
2022/11/28 07:12:22;;;;;;;7.83;6.33;;;;;;;11.01;47.65;98456.72;7004767;28;20301;-82
2022/11/28 07:15:48;;;;;;;7.17;5.77;;;;;;;10.41;48.83;98429.44;7026846;28;20194;-82
2022/11/28 07:19:11;;;;;;;7.80;6.67;;;;;;;10.55;50.11;98461.50;7007407;28;20278;-82
2022/11/28 07:22:34;;;;;;;8.63;6.73;;;;;;;10.55;49.95;98455.28;6993715;28;20303;-84
2022/11/28 07:25:58;;;;;;;8.60;7.00;;;;;;;10.43;50.96;98460.50;6976287;28;20284;-84
2022/11/28 07:29:20;;;;;;;9.33;7.37;;;;;;;10.42;50.92;98480.44;6982522;28;20226;-80
2022/11/28 07:32:41;;;;;;;12.33;8.43;;;;;;;10.37;50.81;98474.84;6980892;28;20202;-81
2022/11/28 07:36:04;;;;;;;10.50;8.03;;;;;;;10.35;50.78;98478.78;6977764;28;20211;-82
2022/11/28 07:39:27;;;;;;;9.40;7.60;;;;;;;10.54;50.87;98472.50;6977945;28;20229;-81
2022/11/28 07:42:49;;;;;;;9.47;6.30;;;;;;;10.19;50.39;98479.22;6981532;28;20294;-83
2022/11/28 07:46:12;;;;;;;7.63;6.63;;;;;;;10.36;51.52;98448.09;7008473;28;20241;-85
2022/11/28 07:49:34;;;;;;;8.07;7.27;;;;;;;10.90;50.77;98484.38;7007876;28;20296;-84
2022/11/28 07:52:56;;;;;;;7.90;6.50;;;;;;;10.57;50.77;98472.09;6998869;28;20301;-84
2022/11/28 07:56:21;;;;;;;7.83;6.40;;;;;;;10.51;51.31;98483.72;6975752;28;20643;-81
2022/11/28 07:59:43;;;;;;;9.83;6.87;;;;;;;10.35;51.30;98482.31;7002259;28;20217;-82
2022/11/28 08:03:06;;;;;;;9.13;7.73;;;;;;;10.48;51.33;98479.56;7004107;28;20209;-80
2022/11/28 08:06:32;;;;;;;7.93;7.00;;;;;;;10.71;51.01;98477.22;7004738;28;20265;-85
2022/11/28 08:09:54;;;;;;;12.60;6.67;;;;;;;10.47;51.31;98472.53;7002682;28;20194;-80
2022/11/28 08:13:17;;;;;;;7.03;6.27;;;;;;;10.87;51.17;98476.69;6999397;28;20285;-82
2022/11/28 08:16:40;;;;;;;8.30;6.13;;;;;;;10.93;50.57;98469.63;6979754;28;20249;-82
2022/11/28 08:20:03;;;;;;;10.57;6.10;;;;;;;10.80;51.07;98483.19;6974848;28;20665;-82
2022/11/28 08:23:25;;;;;;;7.87;5.87;;;;;;;10.47;51.47;98424.03;6988862;28;20678;-82
2022/11/28 08:26:46;;;;;;;7.73;6.23;;;;;;;10.97;50.34;98463.59;6974684;28;20313;-82
2022/11/28 08:30:10;;;;;;;7.43;5.80;;;;;;;10.96;50.82;98483.53;6977035;28;20460;-81
2022/11/28 08:33:32;;;;;;;10.03;7.37;;;;;;;10.81;51.87;98469.47;7015027;28;20213;-81
2022/11/28 08:36:53;;;;;;;6.93;6.03;;;;;;;11.03;51.39;98478.09;7036000;28;20268;-84
2022/11/28 08:40:15;;;;;;;9.30;6.60;;;;;;;10.94;51.93;98464.03;7035344;28;20258;-84
2022/11/28 08:43:37;;;;;;;11.93;6.60;;;;;;;11.38;50.75;98465.81;7033791;28;20205;-83
2022/11/28 08:47:00;;;;;;;7.27;6.33;;;;;;;11.39;50.52;98462.09;6991999;28;20319;-81
2022/11/28 08:50:22;;;;;;;7.10;6.40;;;;;;;11.50;50.17;98469.47;6997008;28;20884;-81
2022/11/28 08:53:45;;;;;;;6.97;6.27;;;;;;;11.13;50.99;98451.47;7000897;28;20208;-82
2022/11/28 08:57:07;;;;;;;9.97;6.40;;;;;;;11.32;51.42;98464.81;7011034;28;20232;-81
2022/11/28 09:00:28;;;;;;;7.80;7.00;;;;;;;10.81;53.20;98460.56;7008794;28;20233;-84
2022/11/28 09:03:52;;;;;;;10.70;6.67;;;;;;;11.19;52.61;98455.97;7006466;28;20217;-84
2022/11/28 09:07:13;;;;;;;13.00;7.07;;;;;;;11.42;51.30;98459.78;7006415;28;20337;-83
2022/11/28 09:10:39;;;;;;;8.37;6.23;;;;;;;11.43;51.07;98477.63;7007069;28;20296;-84
2022/11/28 09:14:01;;;;;;;8.97;6.57;;;;;;;11.80;49.81;98465.13;6985603;28;20215;-84
2022/11/28 09:17:22;;;;;;;12.20;7.20;;;;;;;11.24;50.51;98437.28;6977042;28;20225;-82
2022/11/28 09:20:45;;;;;;;9.97;6.93;;;;;;;10.25;53.74;98476.53;6978350;28;20198;-83
2022/11/28 09:24:12;;;;;;;12.70;10.67;;;;;;;11.14;51.83;98486.31;6978409;28;20244;-83
2022/11/28 09:27:34;;;;;;;17.50;14.63;;;;;;;11.68;50.88;98478.50;6986178;28;20228;-81
2022/11/28 09:31:22;;;;;;;11.07;9.70;;;;;;;11.89;50.37;98470.03;7012749;28;20216;-81
2022/11/28 09:34:43;;;;;;;11.67;9.87;;;;;;;12.12;50.02;98469.38;6981518;28;20214;-83
2022/11/28 09:38:06;;;;;;;10.40;8.40;;;;;;;11.80;49.60;98438.13;6998397;28;20218;-84
2022/11/28 09:41:55;;;;;;;10.13;8.10;;;;;;;12.05;50.00;98464.03;6994140;28;20623;-85
2022/11/28 09:45:19;;;;;;;16.77;9.80;;;;;;;12.09;48.48;98450.94;6994550;28;20221;-82
2022/11/28 09:48:45;;;;;;;14.17;11.40;;;;;;;12.61;47.86;98478.22;7005178;28;20255;-82
2022/11/28 09:52:32;;;;;;;12.57;8.97;;;;;;;12.57;47.95;98468.06;7009630;28;20216;-85
2022/11/28 09:56:01;;;;;;;10.40;7.10;;;;;;;12.48;48.24;98472.13;7010533;28;20236;-83
2022/11/28 09:59:53;;;;;;;23.47;17.27;;;;;;;12.08;48.87;98478.97;7014011;28;20314;-84
2022/11/28 10:03:38;;;;;;;11.03;8.93;;;;;;;12.18;48.86;98473.91;7013856;28;20220;-83
2022/11/28 10:07:08;;;;;;;10.80;7.53;;;;;;;11.95;48.96;98461.03;7011319;28;20256;-84
2022/11/28 10:10:38;;;;;;;7.13;5.47;;;;;;;12.52;47.69;98457.09;7011980;28;20235;-85
2022/11/28 10:14:19;;;;;;;4.57;4.17;;;;;;;12.49;47.17;98450.28;6993350;28;20581;-86
2022/11/28 10:17:49;;;;;;;6.17;5.07;;;;;;;12.21;45.73;98371.56;6982773;28;20226;-84
2022/11/28 10:21:21;;;;;;;5.33;4.73;;;;;;;13.14;45.08;98465.69;6983525;28;20200;-84
2022/11/28 10:24:46;;;;;;;8.30;5.37;;;;;;;13.17;46.28;98462.50;6981907;28;20204;-85
2022/11/28 10:28:14;;;;;;;5.20;4.70;;;;;;;13.18;45.95;98456.06;6981711;28;20241;-84
2022/11/28 10:31:40;;;;;;;6.13;4.33;;;;;;;13.24;46.55;98471.38;6997433;28;20262;-84
2022/11/28 10:35:04;;;;;;;7.10;5.17;;;;;;;13.49;45.98;98450.38;6993042;28;20655;-84
2022/11/28 10:38:36;;;;;;;5.47;4.37;;;;;;;13.64;45.07;98461.59;6991151;28;20256;-85
2022/11/28 10:42:13;;;;;;;5.47;4.20;;;;;;;13.85;44.45;98465.63;6996554;28;20186;-85
2022/11/28 10:45:46;;;;;;;5.30;4.40;;;;;;;13.99;43.68;98473.31;6987049;28;20206;-83
2022/11/28 10:49:22;;;;;;;5.43;4.93;;;;;;;14.04;44.09;98451.75;6991949;28;20688;-85
2022/11/28 10:52:46;;;;;;;6.37;5.27;;;;;;;14.19;44.45;98454.84;7008004;28;20193;-83
2022/11/28 10:56:24;;;;;;;6.80;5.47;;;;;;;14.04;44.00;98435.47;7007599;28;20213;-85
2022/11/28 10:59:58;;;;;;;332.87;140.83;;;;;;;14.00;45.56;98449.75;6983662;28;20644;-83
2022/11/28 11:03:26;;;;;;;267.23;142.50;;;;;;;13.75;45.28;98430.97;6997498;28;20615;-82
2022/11/28 11:06:59;;;;;;;222.20;89.30;;;;;;;13.34;46.69;98449.97;7006965;28;20320;-85
2022/11/28 11:10:24;;;;;;;11.40;5.23;;;;;;;13.73;45.62;98394.34;7007791;28;20205;-82
2022/11/28 11:14:00;;;;;;;5.50;4.37;;;;;;;13.70;45.53;98433.56;6996503;28;20232;-83
2022/11/28 11:17:28;;;;;;;7.97;4.73;;;;;;;13.84;44.34;98424.16;7006194;28;20217;-84
2022/11/28 11:20:50;;;;;;;5.00;4.50;;;;;;;14.28;43.12;98444.47;7003970;28;20632;-82
2022/11/28 11:24:17;;;;;;;4.87;4.40;;;;;;;13.63;43.42;98438.28;7006308;28;20288;-83
2022/11/28 11:27:39;;;;;;;6.60;4.60;;;;;;;13.85;43.53;98438.53;6982702;28;20233;-83
2022/11/28 11:31:02;;;;;;;5.07;4.57;;;;;;;14.04;42.87;98405.66;6987244;28;20298;-82
2022/11/28 11:34:26;;;;;;;4.93;4.43;;;;;;;14.10;43.37;98402.00;6984873;28;20249;-81
2022/11/28 11:37:47;;;;;;;6.40;4.50;;;;;;;14.35;42.66;98446.00;6978039;28;20222;-81
2022/11/28 11:41:29;;;;;;;6.83;4.60;;;;;;;14.27;43.12;98440.13;6976740;28;20424;-81
2022/11/28 11:44:51;;;;;;;5.90;5.10;;;;;;;14.37;42.98;98434.91;6978690;28;20209;-81
2022/11/28 11:48:13;;;;;;;7.20;4.53;;;;;;;13.68;44.68;98422.16;6975962;28;20268;-80
2022/11/28 11:51:35;;;;;;;8.03;4.60;;;;;;;14.32;44.99;98426.66;6975640;28;20210;-83
2022/11/28 11:55:00;;;;;;;7.00;4.33;;;;;;;14.56;44.09;98423.66;6984253;28;20331;-82
2022/11/28 11:58:25;;;;;;;5.37;4.57;;;;;;;13.92;44.25;98407.53;7002317;28;20298;-83
2022/11/28 12:01:49;;;;;;;6.50;4.97;;;;;;;14.41;44.35;98408.94;7001687;28;20277;-83
2022/11/28 12:05:13;;;;;;;6.17;5.30;;;;;;;14.68;44.83;98400.03;6973717;28;20233;-78
2022/11/28 12:08:37;;;;;;;6.27;4.90;;;;;;;14.34;44.75;98378.44;6975252;28;20280;-79
2022/11/28 12:12:01;;;;;;;10.90;9.23;;;;;;;14.46;45.88;98407.16;6979840;28;20236;-78
2022/11/28 12:15:34;;;;;;;8.97;6.87;;;;;;;14.63;46.12;98393.69;7000708;28;20280;-83
2022/11/28 12:19:00;;;;;;;9.33;7.13;;;;;;;14.74;45.93;98407.22;7006927;28;20232;-83
2022/11/28 12:22:27;;;;;;;7.33;4.70;;;;;;;14.87;46.33;98414.25;7003596;28;20221;-84
2022/11/28 12:25:51;;;;;;;5.27;4.77;;;;;;;14.87;45.04;98400.69;7003245;28;20294;-84
2022/11/28 12:29:24;;;;;;;5.03;4.57;;;;;;;14.68;46.05;98393.78;7006351;28;20318;-83
2022/11/28 12:32:54;;;;;;;6.97;5.93;;;;;;;14.88;46.25;98402.31;6994238;28;20280;-84
2022/11/28 12:36:22;;;;;;;9.67;5.60;;;;;;;15.01;46.61;98415.59;7005582;28;20332;-84
2022/11/28 12:39:50;;;;;;;10.77;7.13;;;;;;;14.47;47.33;98414.25;7006157;28;20243;-85
2022/11/28 12:43:22;;;;;;;7.00;5.60;;;;;;;14.04;48.78;98404.84;7005508;28;20205;-82
2022/11/28 12:46:48;;;;;;;8.47;5.27;;;;;;;14.35;48.57;98390.94;6987608;28;20226;-84
2022/11/28 12:50:21;;;;;;;6.43;4.73;;;;;;;14.56;48.16;98392.97;6995235;28;20281;-84
2022/11/28 12:53:51;;;;;;;6.10;4.77;;;;;;;14.20;47.17;98396.00;7006396;28;20253;-84
2022/11/28 12:57:18;;;;;;;4.87;4.17;;;;;;;13.38;49.55;98382.66;7003781;28;20221;-84
2022/11/28 13:00:51;;;;;;;6.53;4.00;;;;;;;14.13;47.82;98379.00;6994736;28;20474;-84
2022/11/28 13:04:22;;;;;;;5.73;5.13;;;;;;;14.87;47.61;98376.25;7004719;28;20242;-84
2022/11/28 13:08:01;;;;;;;7.20;6.10;;;;;;;15.03;47.56;98383.59;7004760;28;20241;-84
2022/11/28 13:11:36;;;;;;;9.57;6.27;;;;;;;15.04;47.46;98349.97;7004924;28;20283;-84
2022/11/28 13:15:00;;;;;;;9.97;6.23;;;;;;;14.73;48.80;98389.28;7003881;28;20194;-85
2022/11/28 13:18:38;;;;;;;10.10;6.27;;;;;;;14.43;49.41;98391.38;7005994;28;20250;-85
2022/11/28 13:22:05;;;;;;;7.37;5.70;;;;;;;14.55;49.54;98380.50;7003988;28;20215;-81
2022/11/28 13:25:31;;;;;;;8.93;6.00;;;;;;;14.80;48.70;98372.88;7002957;28;20375;-82
2022/11/28 13:28:57;;;;;;;8.47;6.80;;;;;;;15.00;49.75;98379.50;7004683;28;20234;-81
2022/11/28 13:32:22;;;;;;;8.73;6.30;;;;;;;14.88;49.00;98367.88;7004600;28;20251;-81
2022/11/28 13:35:45;;;;;;;6.87;6.17;;;;;;;14.83;48.46;98342.50;7004880;28;20277;-81
2022/11/28 13:39:12;;;;;;;8.70;5.70;;;;;;;15.06;47.98;98367.66;7005054;28;20240;-81
2022/11/28 13:42:38;;;;;;;8.33;6.43;;;;;;;15.09;47.95;98361.72;6982105;28;20293;-81
2022/11/28 13:46:00;;;;;;;7.33;5.00;;;;;;;14.72;47.93;98357.78;6990729;28;20302;-81
2022/11/28 13:49:23;;;;;;;8.97;5.17;;;;;;;15.18;46.92;98367.59;7005158;28;20325;-81
2022/11/28 13:52:44;;;;;;;7.57;5.27;;;;;;;15.16;47.42;98362.41;7004320;28;20210;-81
2022/11/28 13:56:26;;;;;;;6.37;5.60;;;;;;;14.88;47.88;98350.75;7003714;28;20821;-81
2022/11/28 13:59:55;;;;;;;7.37;5.10;;;;;;;15.15;47.34;98357.25;6980477;28;20218;-81
2022/11/28 14:03:21;;;;;;;8.60;5.80;;;;;;;15.29;47.57;98361.28;6977232;28;20711;-81
2022/11/28 14:06:44;;;;;;;10.33;7.83;;;;;;;15.17;48.56;98350.47;6978226;28;20231;-81
2022/11/28 14:10:28;;;;;;;11.07;8.00;;;;;;;15.46;49.16;98360.22;6982161;28;20339;-81
2022/11/28 14:14:08;;;;;;;9.47;6.80;;;;;;;15.07;47.54;98360.34;6976736;28;20219;-81
2022/11/28 14:17:48;;;;;;;9.17;6.80;;;;;;;15.15;47.73;98332.78;6990282;28;20242;-82
2022/11/28 14:21:16;;;;;;;8.33;6.60;;;;;;;15.30;48.19;98355.59;7004315;28;20275;-83
2022/11/28 14:24:52;;;;;;;6.93;6.10;;;;;;;15.33;47.48;98357.84;7003788;28;20271;-81
2022/11/28 14:28:20;;;;;;;6.63;4.90;;;;;;;14.61;47.26;98360.53;7004126;28;20951;-81
2022/11/28 14:31:45;;;;;;;7.40;5.30;;;;;;;14.02;48.86;98358.16;6979975;28;20340;-81
2022/11/28 14:35:17;;;;;;;8.17;4.53;;;;;;;14.55;47.84;98373.19;6975585;28;20363;-81
2022/11/28 14:38:45;;;;;;;5.27;4.77;;;;;;;14.25;48.85;98364.41;6975885;28;20252;-83
2022/11/28 14:42:35;;;;;;;5.33;4.83;;;;;;;14.81;47.42;98360.94;6976390;28;20210;-83
2022/11/28 14:46:20;;;;;;;5.90;4.70;;;;;;;14.98;47.46;98353.66;6990584;28;20579;-83
2022/11/28 14:49:42;;;;;;;5.27;4.40;;;;;;;14.89;47.40;98360.53;7003972;28;20702;-84
2022/11/28 14:53:41;;;;;;;5.83;4.70;;;;;;;14.84;47.16;98360.44;7003577;28;20243;-82
2022/11/28 14:57:03;;;;;;;6.53;4.50;;;;;;;14.68;46.81;98366.66;7002960;28;20257;-83
2022/11/28 15:00:27;;;;;;;5.30;4.70;;;;;;;14.84;47.57;98368.59;7003477;28;20205;-82
2022/11/28 15:03:56;;;;;;;5.10;4.57;;;;;;;14.94;47.18;98366.06;7005618;28;20246;-82
2022/11/28 15:07:24;;;;;;;9.57;6.10;;;;;;;14.80;47.41;98343.81;7002865;28;20273;-83
2022/11/28 15:10:50;;;;;;;8.80;7.23;;;;;;;14.76;47.67;98344.56;7003127;28;20319;-83
2022/11/28 15:14:20;;;;;;;8.53;6.30;;;;;;;14.55;49.23;98362.34;7003232;28;20264;-81
2022/11/28 15:17:42;;;;;;;6.17;5.27;;;;;;;13.66;50.08;98353.84;7002720;28;20312;-81
2022/11/28 15:21:07;;;;;;;10.40;7.33;;;;;;;14.14;49.71;98362.53;6988589;28;20213;-81
2022/11/28 15:24:31;;;;;;;8.23;6.53;;;;;;;14.24;49.16;98362.78;6976375;28;20194;-82
2022/11/28 15:27:54;;;;;;;7.87;6.20;;;;;;;13.99;49.41;98355.94;6974871;28;20367;-82
2022/11/28 15:31:22;;;;;;;7.67;5.50;;;;;;;14.18;49.26;98352.84;6974416;28;20230;-82
2022/11/28 15:34:44;;;;;;;11.27;7.73;;;;;;;14.45;49.70;98345.84;6983102;28;20631;-82
2022/11/28 15:38:05;;;;;;;9.13;7.10;;;;;;;14.23;49.66;98327.75;6998782;28;20264;-82
2022/11/28 15:41:28;;;;;;;16.00;11.93;;;;;;;14.01;50.78;98365.50;6993729;28;20198;-82
2022/11/28 15:44:55;;;;;;;11.60;10.10;;;;;;;14.20;50.68;98361.59;6977701;28;20306;-82
2022/11/28 15:48:28;;;;;;;8.23;6.80;;;;;;;13.85;50.78;98371.63;6998415;28;20336;-81
2022/11/28 15:51:53;;;;;;;8.70;6.57;;;;;;;13.68;52.17;98373.38;7003310;28;20204;-82
2022/11/28 15:55:16;;;;;;;8.30;6.83;;;;;;;13.75;51.69;98374.09;7004757;28;20201;-84
2022/11/28 15:58:38;;;;;;;10.30;6.70;;;;;;;13.87;50.83;98376.81;7005491;28;20221;-84
2022/11/28 16:02:04;;;;;;;9.20;6.40;;;;;;;13.14;53.40;98370.13;6982210;28;20281;-83
2022/11/28 16:05:26;;;;;;;7.63;6.27;;;;;;;13.85;52.03;98378.91;6978212;28;20226;-83
2022/11/28 16:08:51;;;;;;;8.93;7.70;;;;;;;13.39;52.72;98370.78;6979478;28;20648;-83